Home > Products > Valid Products > MTR

000
SAUS44 KSHV 021732
MTRAQV
SPECI KAQV 021731Z AUTO VRB03KT 10SM FEW029 SCT035 BKN060 31/24
A3003 RMK AO2 T03110239





000
SAUS44 KSHV 021705
MTRPOE
SPECI KPOE 021704Z AUTO 18009KT 10SM SCT028 SCT038 BKN050 31/23
A3005 RMK AO2





000
SAUS44 KSHV 021657
MTRPOE
METAR KPOE 021655Z AUTO 18007KT 10SM BKN028 BKN036 31/24 A3004 RMK
AO2 SLP173 T03060244





000
SAUS44 KSHV 021657
MTRAQV
METAR KAQV 021656Z AUTO VRB05KT 10SM BKN029 32/24 A3004 RMK AO2
SLP167 T03170244





000
SAUS44 KSHV 021655
MTRBKB
METAR KBKB 021654Z AUTO 17007KT 130V210 10SM BKN030 BKN041 BKN050
32/23 A3002 RMK AO2 SLP189 T03220233





000
SAUS44 KSHV 021655
MTRAQV
SPECI KAQV 021654Z AUTO VRB05KT 10SM BKN027 32/24 A3004 RMK AO2





000
SAUS44 KSHV 021622
MTRAQV
SPECI KAQV 021621Z AUTO 19008KT 170V230 10SM FEW026 BKN037 BKN044
31/23 A3003 RMK AO2 T03110233





000
SAUS44 KSHV 021612
MTRAQV
SPECI KAQV 021611Z AUTO 17006KT 10SM BKN026 BKN035 31/24 A3003 RMK
AO2 T03060239





000
SAUS44 KSHV 021602 COR
MTRAQV
METAR KAQV 021556Z AUTO VRB06G15KT 10SM FEW024 SCT029 BKN040 31/24
A3003 RMK AO2 SLP165 T03060239





000
SAUS44 KSHV 021600 COR
MTRAQV
METAR KAQV 021556Z AUTO VRB06G15KT 10SM FEW024 SCT029 BKN040 31/24
A3003 RMK AO2 SLP165 T03060239





000
SAUS44 KSHV 021559 COR
MTRAQV
METAR KAQV 021556Z AUTO VRB06G15KT 10SM FEW024 SCT029 BKN040 31/24
A3003 RMK AO2 SLP165 T03060239





000
SAUS44 KSHV 021557
MTRPOE
METAR KPOE 021555Z AUTO 19011KT 10SM SCT022 BKN030 30/24 A3004 RMK
AO2 SLP171 T03000244





000
SAUS44 KSHV 021556
MTRBKB
METAR KBKB 021554Z AUTO VRB03KT 10SM FEW028 SCT038 32/24 A3002 RMK
AO2 SLP188 T03170244





000
SAUS44 KSHV 021554
MTRAQV
SPECI KAQV 021553Z AUTO 17007G15KT 10SM SCT024 BKN029 BKN037 31/24
A3003 RMK AO2





000
SAUS44 KSHV 021553
MTRPOE
SPECI KPOE 021552Z AUTO 17011G16KT 10SM SCT022 BKN030 30/24 A3004
RMK AO2





000
SAUS44 KSHV 021535
MTRAQV
SPECI KAQV 021533Z AUTO 16007G15KT 10SM FEW020 SCT034 29/24 A3003
RMK AO2 T02940239





000
SAUS44 KSHV 021505
MTRAQV
SPECI KAQV 021503Z AUTO 18007KT 10SM BKN017 BKN025 29/24 A3003 RMK
AO2 T02890244





000
SAUS44 KSHV 021504
MTRBKB
SPECI KBKB 021502Z AUTO VRB05KT 10SM SCT014 29/24 A3002 RMK AO2
T02890244





000
SAUS44 KSHV 021503
MTRPOE
SPECI KPOE 021502Z AUTO 18011KT 10SM BKN015 28/25 A3004 RMK AO2 CIG
011V020





000
SAUS44 KSHV 021457
MTRAQV
METAR KAQV 021456Z AUTO 17005KT 10SM BKN014 BKN020 BKN025 29/25
A3003 RMK AO2 SLP165 T02890250 51014





000
SAUS44 KSHV 021456
MTRBKB
METAR KBKB 021454Z AUTO VRB04KT 10SM BKN013 BKN021 29/25 A3002 RMK
AO2 SLP191 T02890250





000
SAUS44 KSHV 021456
MTRPOE
METAR KPOE 021455Z AUTO 18011KT 10SM BKN012 BKN017 28/24 A3004 RMK
AO2 SLP172 T02780244 51014





000
SAUS44 KSHV 021447
MTRBKB
SPECI KBKB 021446Z AUTO VRB05KT 10SM BKN013 BKN019 29/25 A3002 RMK
AO2 T02890250





000
SAUS44 KSHV 021440
MTRBKB
SPECI KBKB 021439Z AUTO VRB04KT 10SM SCT011 BKN016 28/25 A3002 RMK
AO2 T02830250





000
SAUS44 KSHV 021430
MTRPOE
SPECI KPOE 021429Z AUTO 16008KT 10SM OVC010 28/25 A3004 RMK AO2 CIG
007V014





000
SAUS44 KSHV 021423
MTRAQV
SPECI KAQV 021422Z AUTO 17007KT 10SM SCT007 OVC013 28/25 A3003 RMK
AO2 T02780250





000
SAUS44 KSHV 021407
MTRPOE
SPECI KPOE 021406Z AUTO 17006KT 10SM BKN008 BKN011 27/25 A3004 RMK
AO2





000
SAUS44 KSHV 021358
MTRAQV
METAR KAQV 021356Z AUTO 18004KT 10SM OVC005 26/25 A3002 RMK AO2 CIG
004V010 SLP162 T02610250





000
SAUS44 KSHV 021357
MTRPOE
METAR KPOE 021355Z AUTO 16009KT 10SM BKN006 26/25 A3003 RMK AO2
SLP169 T02560250





000
SAUS44 KSHV 021356
MTRBKB
METAR KBKB 021354Z AUTO VRB04KT 10SM OVC006 27/25 A3001 RMK AO2
SLP186 T02720250





000
SAUS44 KSHV 021349
MTRPOE
SPECI KPOE 021348Z AUTO 16008KT 10SM BKN006 26/25 A3002 RMK AO2 CIG
003V010





000
SAUS44 KSHV 021320
MTRPOE
SPECI KPOE 021319Z AUTO 14006KT 10SM OVC004 25/25 A3002 RMK AO2





000
SAUS44 KSHV 021308
MTRBKB
SPECI KBKB 021305Z AUTO 00000KT 10SM BKN005 OVC025 27/25 A2999 RMK
AO2 T02670250 $





000
SAUS44 KSHV 021257
MTRAQV
METAR KAQV 021256Z AUTO 17004KT 4SM BR OVC002 26/25 A3000 RMK AO2
SLP154 T02560250 $





000
SAUS44 KSHV 021256
MTRBKB
METAR KBKB 021254Z AUTO 00000KT 10SM BKN004 OVC025 26/24 A2999 RMK
AO2 SLP180 T02610244 $





000
SAUS44 KSHV 021256
MTRPOE
METAR KPOE 021255Z AUTO 14005KT 10SM OVC002 25/24 A3001 RMK AO2
SLP163 T02500244





000
SAUS44 KSHV 021248
MTRAQV
SPECI KAQV 021247Z AUTO 17005KT 3SM BR OVC002 26/25 A2999 RMK AO2
T02560250 $





000
SAUS44 KSHV 021235
MTRAQV
SPECI KAQV 021234Z AUTO 17006KT 1SM BR OVC002 25/24 A2999 RMK AO2
T02500244 $





000
SAUS44 KSHV 021213
MTRAQV
SPECI KAQV 021212Z AUTO VRB04KT 1/2SM FG OVC002 25/24 A2999 RMK AO2
T02500244 $





000
SAUS44 KSHV 021158
MTRAQV
METAR KAQV 021156Z AUTO VRB04KT 1 1/4SM BR OVC003 25/24 A2999 RMK
AO2 SLP151 70001 T02500244 10256 20244 53005 $





000
SAUS44 KSHV 021156
MTRPOE
METAR KPOE 021155Z AUTO 15006KT 10SM OVC002 24/24 A3000 RMK AO2
SLP158 70011 T02440244 10244 20239 53005





000
SAUS44 KSHV 021155
MTRBKB
METAR KBKB 021154Z AUTO 00000KT 10SM OVC002 26/24 A2998 RMK AO2
SLP177 70003 T02560244 10256 20250 53005





000
SAUS44 KSHV 021140
MTRAQV
SPECI KAQV 021139Z AUTO 16004KT 1SM BR VV002 25/24 A2999 RMK AO2
T02500244 $





000
SAUS44 KSHV 021136
MTRPOE
SPECI KPOE 021135Z AUTO 15006KT 3SM BR OVC002 24/24 A2999 RMK AO2





000
SAUS44 KSHV 021113
MTRPOE
SPECI KPOE 021112Z AUTO 14006KT 1 3/4SM BR OVC002 24/24 A2999 RMK
AO2





000
SAUS44 KSHV 021105 COR
MTRBKB
SPECI KBKB 021101Z AUTO 00000KT 3SM BR OVC002 26/24 A2997 RMK AO2
T02560244





000
SAUS44 KSHV 021103
MTRBKB
SPECI KBKB 021101Z AUTO 00000KT 3SM BR OVC002 26/24 A299
NO CARRIER

RING

CONNECT 1200

MIARR7NRB ALL
TTAA00 KNRB 021100
.A KNRB 0902 DH1100/PPH 0.00





000
SAUS44 KSHV 021102
MTRBKB
SPECI KBKB 021101Z AUTO 00000KT 3SM BR OVC002 26/24 A299





000
SAUS44 KSHV 021057
MTRAQV
METAR KAQV 021056Z AUTO 16004KT 3/4SM BR VV002 24/24 A2998 RMK AO2
SLP147 T02440239 $





000
SAUS44 KSHV 021056
MTRBKB
METAR KBKB 021054Z AUTO 00000KT 2 1/2SM BR OVC002 26/24 A2997 RMK
AO2 SLP174 T02560244





000
SAUS44 KSHV 021056
MTRPOE
METAR KPOE 021055Z AUTO 14005KT 7SM OVC002 24/24 A2999 RMK AO2
SLP156 T02440244





000
SAUS44 KSHV 021041
MTRBKB
SPECI KBKB 021040Z AUTO 00000KT 1 3/4SM BR OVC002 26/24 A2997 RMK
AO2 T02560244





000
SAUS44 KSHV 021028
MTRBKB
SPECI KBKB 021027Z AUTO 00000KT 2 1/2SM BR OVC002 26/24 A2997 RMK
AO2 T02560244





000
SAUS44 KSHV 021024
MTRAQV
SPECI KAQV 021023Z AUTO 17003KT 3/4SM BR VV002 24/24 A2998 RMK AO2
T02440239 $





000
SAUS44 KSHV 021004
MTRAQV
SPECI KAQV 021003Z AUTO 17003KT 1 1/4SM BR OVC002 24/24 A2998 RMK
AO2 T02440239 $





000
SAUS44 KSHV 021003
MTRBKB
SPECI KBKB 021001Z AUTO 00000KT 5SM BR OVC002 26/24 A2996 RMK AO2
T02560239





000
SAUS44 KSHV 020958
MTRAQV
METAR KAQV 020956Z AUTO 16004KT 2SM BR OVC002 25/24 A2997 RMK AO2
SLP146 T02500244 $





000
SAUS44 KSHV 020956
MTRPOE
METAR KPOE 020955Z AUTO 14006KT 5SM BR OVC002 24/24 A2998 RMK AO2
SLP151 T02390239





000
SAUS44 KSHV 020955
MTRBKB
METAR KBKB 020954Z AUTO 00000KT 2 1/2SM BR OVC002 26/24 A2996 RMK
AO2 SLP169 T02560239





000
SAUS44 KSHV 020952
MTRAQV
SPECI KAQV 020951Z AUTO 16004KT 2 1/2SM BR OVC002 25/24 A2997 RMK
AO2 $





000
SAUS44 KSHV 020937
MTRBKB
SPECI KBKB 020936Z AUTO 00000KT 1 1/4SM BR OVC002 26/24 A2996 RMK
AO2 T02560239





000
SAUS44 KSHV 020917
MTRBKB
SPECI KBKB 020916Z AUTO VRB03KT 3/4SM BR VV002 25/24 A2996 RMK AO2
T02500239





000
SAUS44 KSHV 020904
MTRPOE
SPECI KPOE 020902Z AUTO 13004KT 10SM OVC002 24/24 A2998 RMK AO2





000
SAUS44 KSHV 020858
MTRAQV
METAR KAQV 020856Z AUTO 16004KT 6SM BR OVC002 24/24 A2997 RMK AO2
SLP144 T02440239 58001 $





000
SAUS44 KSHV 020856
MTRPOE
METAR KPOE 020855Z AUTO 13005KT 10SM OVC004 24/24 A2998 RMK AO2
SLP153 T02440239 58001





000
SAUS44 KSHV 020855
MTRBKB
METAR KBKB 020854Z AUTO 12003KT 1SM BR VV002 25/24 A2997 RMK AO2
SLP171 T02500239 50001





000
SAUS44 KSHV 020849
MTRAQV
SPECI KAQV 020847Z AUTO 00000KT 4SM BR OVC002 24/24 A2997 RMK AO2
T02440239 $





000
SAUS44 KSHV 020846
MTRPOE
SPECI KPOE 020845Z AUTO 13004KT 10SM BKN004 24/24 A2998 RMK AO2





000
SAUS44 KSHV 020842
MTRBKB
SPECI KBKB 020841Z AUTO 00000KT 1SM BR VV002 25/24 A2996 RMK AO2
T02500239





000
SAUS44 KSHV 020834
MTRAQV
SPECI KAQV 020833Z AUTO 00000KT 2SM BR OVC002 24/24 A2997 RMK AO2
T02440239 $





000
SAUS44 KSHV 020833
MTRPOE
SPECI KPOE 020832Z AUTO 13004KT 10SM FEW004 24/24 A2998 RMK AO2





000
SAUS44 KSHV 020829
MTRBKB
SPECI KBKB 020828Z AUTO 00000KT 2SM BR OVC002 25/24 A2997 RMK AO2
T02500239





000
SAUS44 KSHV 020800
MTRBKB
SPECI KBKB 020759Z AUTO 00000KT 8SM BKN004 25/23 A2997 RMK AO2
T02500233





000
SAUS44 KSHV 020758
MTRAQV
METAR KAQV 020756Z AUTO 00000KT 4SM BR OVC002 24/24 A2997 RMK AO2
SLP146 T02440239 $





000
SAUS44 KSHV 020757
MTRPOE
METAR KPOE 020755Z AUTO 13003KT 10SM FEW022 24/24 A2999 RMK AO2
SLP154 T02440239





000
SAUS44 KSHV 020755
MTRBKB
METAR KBKB 020754Z AUTO 00000KT 7SM SCT005 25/23 A2997 RMK AO2
SLP173 T02500233





000
SAUS44 KSHV 020754
MTRBKB
SPECI KBKB 020752Z AUTO 00000KT 7SM SCT005 25/23 A2997 RMK AO2





000
SAUS44 KSHV 020753
MTRPOE
SPECI KPOE 020752Z AUTO 15003KT 10SM SCT022 24/24 A2999 RMK AO2





000
SAUS44 KSHV 020733
MTRPOE
SPECI KPOE 020732Z AUTO 15003KT 10SM SCT010 BKN016 OVC024 24/24
A2999 RMK AO2





000
SAUS44 KSHV 020701
MTRAQV
SPECI KAQV 020700Z AUTO 00000KT 9SM BKN003 BKN007 BKN018 26/24 A2997
RMK AO2 T02560239 $





000
SAUS44 KSHV 020657
MTRAQV
METAR KAQV 020656Z AUTO 00000KT 9SM SCT003 SCT007 BKN011 24/24 A2997
RMK AO2 SLP146 T02440239 $





000
SAUS44 KSHV 020656
MTRPOE
METAR KPOE 020655Z AUTO 12003KT 10SM BKN010 OVC016 24/24 A2999 RMK
AO2 SLP154 T02440239





000
SAUS44 KSHV 020655
MTRBKB
METAR KBKB 020654Z AUTO 00000KT 10SM SCT017 26/24 A2996 RMK AO2
SLP170 T02560239





000
SAUS44 KSHV 020648
MTRPOE
SPECI KPOE 020647Z AUTO 11003KT 10SM BKN010 OVC016 24/24 A2999 RMK
AO2





000
SAUS44 KSHV 020635
MTRPOE
SPECI KPOE 020634Z AUTO 10003KT 10SM BKN016 24/24 A2998 RMK AO2





000
SAUS44 KSHV 020632
MTRAQV
SPECI KAQV 020631Z AUTO 00000KT 10SM FEW005 SCT014 25/24 A2997 RMK
AO2 T02500239 $





000
SAUS44 KSHV 020625
MTRBKB
SPECI KBKB 020624Z AUTO 00000KT 10SM SCT006 OVC016 26/24 A2996 RMK
AO2 T02560239





000
SAUS44 KSHV 020619
MTRAQV
SPECI KAQV 020618Z AUTO VRB03KT 10SM SCT014 SCT023 25/24 A2997 RMK
AO2 T02500239 $





000
SAUS44 KSHV 020604
MTRBKB
SPECI KBKB 020601Z AUTO 00000KT 10SM BKN006 26/24 A2996 RMK AO2
T02560239





000
SAUS44 KSHV 020604
MTRPOE
SPECI KPOE 020602Z AUTO 14004KT 10SM SCT014 24/24 A2998 RMK AO2





000
SAUS44 KSHV 020558
MTRAQV
METAR KAQV 020556Z AUTO 16003KT 10SM SCT018 BKN024 BKN028 25/24
A2997 RMK AO2 SLP145 60001 T02500239 10294 20250 403330239 56000 $





000
SAUS44 KSHV 020556
MTRBKB
METAR KBKB 020554Z AUTO 00000KT 10SM SCT007 26/24 A2996 RMK AO2
SLP168 60003 T02560239 10283 20256 403390256 58004





000
SAUS44 KSHV 020556
MTRPOE
METAR KPOE 020555Z AUTO 14004KT 10SM BKN014 24/24 A2998 RMK AO2
SLP150 T02440239 10267 20244 56003





000
SAUS44 KSHV 020538
MTRAQV
SPECI KAQV 020537Z AUTO 16003KT 10SM FEW010 OVC018 25/24 A2997 RMK
AO2 CIG 012V022 T02500239 $





000
SAUS44 KSHV 020524
MTRPOE
SPECI KPOE 020523Z AUTO 14004KT 10SM BKN012 24/24 A2998 RMK AO2





000
SAUS44 KSHV 020513
MTRAQV
SPECI KAQV 020512Z AUTO 00000KT 10SM BKN014 25/24 A2998 RMK AO2
T02500239 $





000
SAUS44 KSHV 020503
MTRPOE
SPECI KPOE 020503Z AUTO 14006KT 10SM FEW008 SCT015 25/24 A2998 RMK
AO2





000
SAUS44 KSHV 020503
MTRBKB
SPECI KBKB 020501Z AUTO 00000KT 10SM FEW005 SCT014 26/24 A2996 RMK
AO2 T02560239





000
SAUS44 KSHV 020457
MTRAQV
METAR KAQV 020456Z AUTO 00000KT 10SM CLR 25/24 A2997 RMK AO2 SLP145
T02500239 $





000
SAUS44 KSHV 020456
MTRPOE
METAR KPOE 020455Z AUTO 13005KT 10SM FEW010 25/24 A2998 RMK AO2
SLP151 T02500244 403220228





000
SAUS44 KSHV 020455
MTRBKB
METAR KBKB 020454Z AUTO 00000KT 10SM SCT013 26/24 A2996 RMK AO2
SLP170 T02560239





000
SAUS44 KSHV 020358
MTRAQV
METAR KAQV 020356Z AUTO 14003KT 10SM CLR 25/24 A2997 RMK AO2 SLP145
T02500239 $





000
SAUS44 KSHV 020358
MTRAQV
METAR KAQV 020356Z AUTO 14003KT 10SM CLR 25/24 A2997 RMK AO2 SLP145
T02500239 $





000
SAUS44 KSHV 020356
MTRPOE
METAR KPOE 020355Z AUTO 17006KT 10SM CLR 26/24 A2998 RMK AO2 SLP151
T02560244





000
SAUS44 KSHV 020356
MTRPOE
METAR KPOE 020355Z AUTO 17006KT 10SM CLR 26/24 A2998 RMK AO2 SLP151
T02560244





000
SAUS44 KSHV 020355
MTRBKB
METAR KBKB 020354Z AUTO 00000KT 10SM CLR 26/23 A2996 RMK AO2 SLP171
T02560233





000
SAUS44 KSHV 020355
MTRBKB
METAR KBKB 020354Z AUTO 00000KT 10SM CLR 26/23 A2996 RMK AO2 SLP171
T02560233





000
SAUS44 KSHV 020258
MTRAQV
METAR KAQV 020256Z AUTO VRB04KT 10SM CLR 26/24 A2997 RMK AO2 SLP146
60001 T02560239 50011 $





000
SAUS44 KSHV 020256
MTRBKB
METAR KBKB 020254Z AUTO 00000KT 10SM CLR 26/24 A2997 RMK AO2 RAE20
SLP172 P0000 60003 T02560239 50008





000
SAUS44 KSHV 020256
MTRPOE
METAR KPOE 020255Z AUTO 15006KT 10SM FEW022 25/24 A2999 RMK AO2
TSE0156 SLP154 T02500244 50012





000
SAUS44 KSHV 020204
MTRBKB
SPECI KBKB 020203Z AUTO VRB03KT 10SM -RA BKN040 BKN090 BKN110 26/24
A2997 RMK AO2 P0000 T02610244





000
SAUS44 KSHV 020204
MTRPOE
SPECI KPOE 020202Z AUTO 14006KT 10SM CLR 26/24 A2999 RMK AO2 TSE0156





000
SAUS44 KSHV 020158
MTRAQV
METAR KAQV 020156Z AUTO VRB03KT 10SM FEW028 26/24 A2998 RMK AO2
SLP150 T02560239 $





000
SAUS44 KSHV 020156
MTRPOE
METAR KPOE 020155Z AUTO 12007KT 10SM TS FEW031 SCT100 26/24 A3000
RMK AO2 TSB37 SLP157 T02560244





000
SAUS44 KSHV 020156
MTRBKB
METAR KBKB 020154Z AUTO 00000KT 7SM VCTS -RA FEW028 SCT050 BKN080
26/24 A2998 RMK AO2 RAB38 TSE51 SLP176 P0003 T02610244





000
SAUS44 KSHV 020144
MTRPOE
SPECI KPOE 020143Z AUTO 12008KT 10SM TS FEW031 26/24 A3000 RMK AO2
TSB37





000
SAUS44 KSHV 020143
MTRBKB
SPECI KBKB 020142Z AUTO VRB03KT 7SM -TSRA SCT030 BKN050 BKN075 27/24
A2998 RMK AO2 RAB38 P0001 T02670244





000
SAUS44 KSHV 020057
MTRAQV
METAR KAQV 020056Z AUTO 15003KT 10SM CLR 27/24 A2997 RMK AO2
RAB15E26 SLP144 P0001 T02670244 $





000
SAUS44 KSHV 020056
MTRPOE
METAR KPOE 020055Z AUTO 13006KT 10SM FEW110 26/24 A2997 RMK AO2
SLP150 T02610244





000
SAUS44 KSHV 020055
MTRBKB
METAR KBKB 020054Z AUTO 00000KT 10SM FEW110 28/24 A2995 RMK AO2
SLP168 T02780239





000
SAUS44 KSHV 012357
MTRAQV
METAR KAQV 012356Z AUTO 00000KT 10SM FEW025 29/25 A2994 RMK AO2
SLP135 60000 T02940250 10333 20289 56004 $





000
SAUS44 KSHV 012356
MTRPOE
METAR KPOE 012355Z AUTO 13004KT 10SM CLR 27/24 A2995 RMK AO2
TSE03RAB08E32 SLP142 P0004 60011 T02670244 10322 20256 56001





000
SAUS44 KSHV 012356
MTRBKB
METAR KBKB 012354Z AUTO 00000KT 10SM FEW037 28/24 A2994 RMK AO2
RAB29E41 SLP164 P0000 60000 T02780239 10339 20272 53002





000
SAUS44 KSHV 012310
MTRPOE
SPECI KPOE 012309Z AUTO 21009G16KT 7SM -RA FEW020 SCT031 BKN042
27/23 A2996 RMK AO2 TSE03RAB08 P0003





000
SAUS44 KSHV 012259
MTRAQV
METAR KAQV 012256Z AUTO 17004KT 10SM CLR 31/24 A2994 RMK AO2 SLP136
T03060244 $





000
SAUS44 KSHV 012257
MTRPOE
METAR KPOE 012255Z AUTO 13006KT 10SM TS FEW033 28/25 A2996 RMK AO2
TSB16 SLP144 T02830250





000
SAUS44 KSHV 012256
MTRBKB
METAR KBKB 012254Z AUTO VRB04KT 10SM FEW028 SCT036 30/24 A2993 RMK
AO2 SLP161 T03000244





000
SAUS44 KSHV 012224
MTRPOE
SPECI KPOE 012222Z AUTO 14009KT 10SM TS CLR 29/24 A2994 RMK AO2
TSB16





000
SAUS44 KSHV 012157
MTRAQV
METAR KAQV 012156Z AUTO VRB04KT 10SM CLR 31/24 A2993 RMK AO2 TSE28
SLP131 T03060244 $





000
SAUS44 KSHV 012156
MTRPOE
METAR KPOE 012155Z AUTO 18005KT 10SM FEW026 29/24 A2994 RMK AO2
SLP137 T02940244





000
SAUS44 KSHV 012155
MTRBKB
METAR KBKB 012154Z AUTO 00000KT 10SM CLR 32/24 A2991 RMK AO2 SLP153
T03220239





000
SAUS44 KSHV 012135
MTRAQV
SPECI KAQV 012134Z AUTO VRB03KT 10SM CLR 30/24 A2993 RMK AO2 TSE28
T03000244 $





000
SAUS44 KSHV 012058
MTRAQV
METAR KAQV 012056Z AUTO VRB04KT 10SM TS CLR 31/24 A2995 RMK AO2
RAB02E12 TSB26 SLP138 P0000 60000 T03060244 56015 $





000
SAUS44 KSHV 012056
MTRPOE
METAR KPOE 012055Z AUTO 16007KT 130V190 10SM CLR 30/24 A2996 RMK AO2
SLP143 60007 T03000244 58014





000
SAUS44 KSHV 012055
MTRBKB
METAR KBKB 012054Z AUTO VRB03KT 10SM FEW100 32/25 A2994 RMK AO2
TSE04 SLP161 60000 T03220250 58007





000
SAUS44 KSHV 012033
MTRAQV
SPECI KAQV 012032Z AUTO 18006KT 10SM TS FEW026 29/25 A2996 RMK AO2
RAB02E12 TSB26 P0000 T02940250 $





000
SAUS44 KSHV 012011
MTRBKB
SPECI KBKB 012010Z AUTO VRB03KT 10SM FEW090 29/25 A2995 RMK AO2
TSE04 T02940250





000
SAUS44 KSHV 011957
MTRAQV
METAR KAQV 011956Z AUTO 18006KT 10SM FEW042 BKN055 BKN070 31/24
A2996 RMK AO2 SLP140 T03110239 $





000
SAUS44 KSHV 011956
MTRBKB
METAR KBKB 011954Z AUTO 21003KT 10SM TS FEW032 SCT080 BKN100 29/25
A2996 RMK AO2 RAB31E45 TSB43 SLP172 P0000 T02890250





000
SAUS44 KSHV 011956
MTRPOE
METAR KPOE 011955Z AUTO 16007KT 10SM FEW036 31/24 A2998 RMK AO2
RAE1859 SLP150 P0000 T03060244





000
SAUS44 KSHV 011950
MTRBKB
SPECI KBKB 011949Z AUTO VRB03KT 10SM TS FEW032 BKN075 BKN100 29/26
A2996 RMK AO2 RAB31E45 TSB43 P0000





000
SAUS44 KSHV 011857
MTRAQV
METAR KAQV 011856Z AUTO VRB05KT 10SM SCT038 BKN060 32/23 A2998 RMK
AO2 SLP147 T03170233 $





000
SAUS44 KSHV 011856
MTRPOE
METAR KPOE 011855Z AUTO 15015G18KT 7SM -RA SCT035 BKN044 BKN090
29/24 A2999 RMK AO2 RAB46 SLP154 P0007 T02940244





000
SAUS44 KSHV 011855
MTRBKB
METAR KBKB 011854Z AUTO VRB04KT 10SM FEW042 SCT050 33/24 A2996 RMK
AO2 SLP169 T03280239





000
SAUS44 KSHV 011757
MTRAQV
METAR KAQV 011756Z AUTO 17005KT 10SM FEW029 BKN070 31/24 A2999 RMK
AO2 SLP153 T03060239 10311 20256 58004 $





000
SAUS44 KSHV 011756
MTRPOE
METAR KPOE 011755Z AUTO 14011G16KT 10SM SCT033 BKN040 31/23 A3000
RMK AO2 SLP158 T03110233 10322 20250 58005





000
SAUS44 KSHV 011755
MTRBKB
METAR KBKB 011754Z AUTO VRB05KT 10SM FEW031 BKN036 BKN048 33/24
A2998 RMK AO2 SLP175 T03280239 10328 20261 58006





000
SAUS44 KSHV 011658
MTRAQV
METAR KAQV 011656Z AUTO 18005KT 10SM SCT025 BKN032 BKN043 29/24
A3000 RMK AO2 SLP157 T02940239 $





000
SAUS44 KSHV 011656
MTRPOE
METAR KPOE 011655Z AUTO 16010G14KT 10SM SCT030 SCT037 30/24 A3001
RMK AO2 SLP163 T03000239





000
SAUS44 KSHV 011655
MTRBKB
METAR KBKB 011654Z AUTO VRB06KT 10SM FEW026 FEW030 SCT045 32/24
A2999 RMK AO2 SLP181 T03220239





000
SAUS44 KSHV 011611
MTRBKB
SPECI KBKB 011610Z AUTO VRB06KT 10SM SCT022 31/24 A3000 RMK AO2
T03110239





000
SAUS44 KSHV 011557
MTRPOE
METAR KPOE 011555Z AUTO 18006KT 10SM FEW022 SCT031 BKN042 29/24
A3002 RMK AO2 SLP166 T02890239





000
SAUS44 KSHV 011557
MTRAQV
METAR KAQV 011556Z AUTO 18005KT 10SM FEW021 FEW045 29/25 A3001 RMK
AO2 SLP158 T02890250 $





000
SAUS44 KSHV 011555
MTRBKB
METAR KBKB 011554Z AUTO VRB03KT 10SM BKN020 BKN027 30/24 A3000 RMK
AO2 SLP184 T03000244





000
SAUS44 KSHV 011532
MTRPOE
SPECI KPOE 011531Z AUTO 17007KT 10SM FEW018 SCT038 28/24 A3002 RMK
AO2





000
SAUS44 KSHV 011513
MTRAQV
SPECI KAQV 011511Z AUTO VRB05KT 10SM FEW015 SCT027 BKN035 28/25
A3001 RMK AO2 T02780250 $





000
SAUS44 KSHV 011505
MTRBKB
SPECI KBKB 011501Z AUTO 14007KT 090V190 10SM SCT012 BKN020 BKN025
29/25 A3000 RMK AO2 T02940250





000
SAUS44 KSHV 011457
MTRAQV
METAR KAQV 011456Z AUTO 18004KT 10SM SCT013 BKN027 OVC041 28/25
A3001 RMK AO2 SLP157 T02780250 51005 $





000
SAUS44 KSHV 011456
MTRBKB
METAR KBKB 011454Z AUTO 00000KT 10SM BKN012 BKN019 29/25 A3000 RMK
AO2 SLP182 T02890250 51008





000
SAUS44 KSHV 011456
MTRPOE
METAR KPOE 011455Z AUTO 16010KT 10SM SCT015 BKN019 OVC027 28/24
A3001 RMK AO2 SLP164 T02780244 51003





000
SAUS44 KSHV 011454
MTRPOE
SPECI KPOE 011453Z AUTO 16008KT 10SM SCT015 BKN019 OVC027 28/24
A3001 RMK AO2





000
SAUS44 KSHV 011453
MTRAQV
SPECI KAQV 011452Z AUTO 18004KT 10SM SCT013 SCT019 BKN027 28/25
A3001 RMK AO2 $





000
SAUS44 KSHV 011435
MTRAQV
SPECI KAQV 011433Z AUTO 00000KT 10SM FEW009 BKN014 OVC029 27/25
A3001 RMK AO2 T02720250 $





000
SAUS44 KSHV 011427
MTRAQV
SPECI KAQV 011426Z AUTO 00000KT 10SM BKN009 OVC014 27/25 A3001 RMK
AO2 T02720250 $





000
SAUS44 KSHV 011424
MTRBKB
SPECI KBKB 011423Z AUTO VRB03KT 10SM BKN010 OVC016 28/25 A2999 RMK
AO2 CIG 008V012 T02830250





000
SAUS44 KSHV 011421
MTRAQV
SPECI KAQV 011420Z AUTO 14003KT 10SM BKN010 OVC015 27/25 A3001 RMK
AO2 T02670250 $





000
SAUS44 KSHV 011414
MTRPOE
SPECI KPOE 011413Z AUTO 13005KT 10SM BKN010 OVC013 27/25 A3001 RMK
AO2 CIG 006V012





000
SAUS44 KSHV 011357
MTRAQV
METAR KAQV 011356Z AUTO VRB03KT 10SM BKN008 OVC015 27/25 A3000 RMK
AO2 CIG 006V012 SLP156 T02670250 $





000
SAUS44 KSHV 011356
MTRPOE
METAR KPOE 011355Z AUTO 14006KT 10SM BKN008 BKN012 OVC017 26/25
A3001 RMK AO2 SLP162 T02610250





000
SAUS44 KSHV 011355
MTRBKB
METAR KBKB 011354Z AUTO VRB03KT 10SM OVC008 28/25 A2999 RMK AO2
SLP180 T02780250





000
SAUS44 KSHV 011310
MTRPOE
SPECI KPOE 011309Z AUTO 16005KT 10SM OVC005 25/25 A3001 RMK AO2





000
SAUS44 KSHV 011304
MTRBKB
SPECI KBKB 011302Z AUTO 00000KT 9SM OVC005 26/24 A2998 RMK AO2
T02610244





000
SAUS44 KSHV 011257
MTRAQV
METAR KAQV 011256Z AUTO 17003KT 8SM OVC007 26/25 A2999 RMK AO2
SLP152 T02560250 $





000
SAUS44 KSHV 011256
MTRPOE
METAR KPOE 011255Z AUTO 16005KT 10SM OVC003 25/25 A3000 RMK AO2
SLP161 T02500250





000
SAUS44 KSHV 011255
MTRBKB
METAR KBKB 011254Z AUTO 00000KT 9SM OVC004 26/24 A2998 RMK AO2 CIG
003V009 SLP178 T02610244





000
SAUS44 KSHV 011213
MTRAQV
SPECI KAQV 011212Z AUTO 00000KT 6SM BR OVC005 26/24 A2999 RMK AO2
T02560244 $





000
SAUS44 KSHV 011158
MTRAQV
METAR KAQV 011156Z AUTO 17003KT 6SM BR OVC004 26/24 A2999 RMK AO2
CIG 004V007 SLP150 7//// T02560244 10256 20239 53005 $





000
SAUS44 KSHV 011156
MTRPOE
METAR KPOE 011155Z AUTO 14007KT 10SM OVC003 25/24 A2999 RMK AO2
SLP156 70011 T02500244 10250 20228 53002





000
SAUS44 KSHV 011155
MTRBKB
METAR KBKB 011154Z AUTO VRB03KT 7SM OVC004 26/24 A2997 RMK AO2
SLP174 70020 T02610244 10261 20256 53002





000
SAUS44 KSHV 011145
MTRAQV
SPECI KAQV 011144Z AUTO 00000KT 7SM OVC004 26/24 A2998 RMK AO2
T02560244 $





000
SAUS44 KSHV 011057
MTRAQV
METAR KAQV 011056Z AUTO 00000KT 8SM OVC005 26/24 A2997 RMK AO2
SLP146 T02560244 $





000
SAUS44 KSHV 011056
MTRPOE
METAR KPOE 011055Z AUTO 15006KT 5SM BR OVC003 25/24 A2998 RMK AO2
SLP152 T02500244





000
SAUS44 KSHV 011055
MTRBKB
METAR KBKB 011054Z AUTO 00000KT 8SM OVC004 26/24 A2996 RMK AO2
SLP170 T02610244





000
SAUS44 KSHV 011043
MTRPOE
SPECI KPOE 011042Z AUTO 15005KT 10SM BKN003 OVC027 25/24 A2998 RMK
AO2





000
SAUS44 KSHV 010958
MTRAQV
METAR KAQV 010956Z AUTO VRB04KT 7SM OVC006 26/24 A2997 RMK AO2 CIG
004V009 SLP146 T02560244 $





000
SAUS44 KSHV 010957
MTRPOE
METAR KPOE 010955Z AUTO 16007KT 10SM OVC005 25/24 A2999 RMK AO2
SLP154 T02500244





000
SAUS44 KSHV 010955
MTRBKB
METAR KBKB 010954Z AUTO 00000KT 8SM OVC004 26/24 A2997 RMK AO2
SLP173 T02610244





000
SAUS44 KSHV 010926
MTRBKB
SPECI KBKB 010925Z AUTO 00000KT 7SM BKN004 OVC016 26/24 A2996 RMK
AO2 T02610244





000
SAUS44 KSHV 010909
MTRBKB
SPECI KBKB 010907Z AUTO 00000KT 7SM BKN005 OVC017 26/24 A2996 RMK
AO2 T02610244





000
SAUS44 KSHV 010858
MTRAQV
METAR KAQV 010856Z AUTO 16003KT 6SM BR BKN005 OVC009 25/24 A2997 RMK
AO2 CIG 003V007 SLP145 T02500244 56005 $





000
SAUS44 KSHV 010856
MTRPOE
METAR KPOE 010855Z AUTO 15005KT 10SM OVC005 25/24 A2998 RMK AO2
SLP154 T02500244 55004





000
SAUS44 KSHV 010855
MTRBKB
METAR KBKB 010854Z AUTO 00000KT 7SM BKN004 OVC017 26/24 A2997 RMK
AO2 SLP171 T02610244 56002





000
SAUS44 KSHV 010810
MTRBKB
SPECI KBKB 010808Z AUTO VRB03KT 7SM OVC004 26/24 A2997 RMK AO2
T02610244





000
SAUS44 KSHV 010809
MTRAQV
SPECI KAQV 010808Z AUTO VRB03KT 6SM BR BKN005 OVC023 25/24 A2998 RMK
AO2 T02500239 $





000
SAUS44 KSHV 010758
MTRAQV
METAR KAQV 010756Z AUTO 17003KT 6SM BR BKN004 OVC023 24/24 A2998 RMK
AO2 SLP148 T02440239 $





000
SAUS44 KSHV 010756
MTRPOE
METAR KPOE 010755Z AUTO 14006KT 10SM OVC005 24/24 A2998 RMK AO2
SLP153 T02440239





000
SAUS44 KSHV 010755
MTRBKB
METAR KBKB 010754Z AUTO VRB03KT 7SM BKN005 OVC022 26/24 A2997 RMK
AO2 SLP171 T02610244





000
SAUS44 KSHV 010750
MTRBKB
SPECI KBKB 010749Z AUTO VRB03KT 7SM BKN005 OVC021 26/24 A2997 RMK
AO2





000
SAUS44 KSHV 010738
MTRPOE
SPECI KPOE 010737Z AUTO 14003KT 10SM BKN005 OVC022 24/24 A2999 RMK
AO2





000
SAUS44 KSHV 010736
MTRBKB
SPECI KBKB 010735Z AUTO 00000KT 8SM FEW004 BKN021 26/24 A2997 RMK
AO2 T02610244





000
SAUS44 KSHV 010729
MTRPOE
SPECI KPOE 010728Z AUTO 14003KT 10SM SCT005 OVC022 24/23 A2999 RMK
AO2





000
SAUS44 KSHV 010727
MTRBKB
SPECI KBKB 010726Z AUTO VRB04KT 7SM BKN022 26/24 A2997 RMK AO2
T02560239





000
SAUS44 KSHV 010721
MTRAQV
SPECI KAQV 010720Z AUTO 18004KT 8SM FEW004 BKN023 25/24 A2998 RMK
AO2 T02500239 $





000
SAUS44 KSHV 010707
MTRPOE
SPECI KPOE 010706Z AUTO 14004KT 10SM BKN005 OVC024 24/24 A2999 RMK
AO2





000
SAUS44 KSHV 010657
MTRAQV
METAR KAQV 010656Z AUTO 17006KT 8SM BKN025 24/24 A2997 RMK AO2
SLP146 T02440239 $





000
SAUS44 KSHV 010656
MTRBKB
METAR KBKB 010654Z AUTO 00000KT 9SM CLR 26/24 A2997 RMK AO2 SLP174
T02560239





000
SAUS44 KSHV 010656
MTRPOE
METAR KPOE 010655Z AUTO 13004KT 10SM SCT005 OVC024 24/24 A2999 RMK
AO2 SLP156 T02390239





000
SAUS44 KSHV 010644
MTRAQV
SPECI KAQV 010643Z AUTO 17006KT 7SM FEW004 OVC027 24/23 A2998 RMK
AO2 T02440233 $





000
SAUS44 KSHV 010640
MTRPOE
SPECI KPOE 010639Z AUTO 14004KT 10SM FEW005 OVC024 24/23 A2999 RMK
AO2





000
SAUS44 KSHV 010632
MTRAQV
SPECI KAQV 010631Z AUTO 00000KT 7SM OVC029 24/23 A2998 RMK AO2
T02390233 $





000
SAUS44 KSHV 010612
MTRPOE
SPECI KPOE 010611Z AUTO 14005KT 10SM BKN026 23/23 A2999 RMK AO2





000
SAUS44 KSHV 010557
MTRAQV
METAR KAQV 010556Z AUTO VRB03KT 8SM CLR 24/23 A2999 RMK AO2 SLP150
T02390228 10250 20233 403000233 56004 $





000
SAUS44 KSHV 010557
MTRPOE
METAR KPOE 010555Z AUTO 14003KT 10SM CLR 23/23 A3000 RMK AO2 SLP157
P0001 60001 T02280228 10250 20228 58006





000
SAUS44 KSHV 010556
MTRBKB
METAR KBKB 010554Z AUTO VRB03KT 9SM CLR 26/24 A2997 RMK AO2 SLP175
T02560239 10256 20239 403170239 58006





000
SAUS44 KSHV 010458
MTRAQV
METAR KAQV 010456Z AUTO 16003KT 10SM FEW034 24/23 A2999 RMK AO2
SLP150 T02390228 $





000
SAUS44 KSHV 010456
MTRPOE
METAR KPOE 010455Z AUTO 12003KT 10SM SCT036 24/23 A3001 RMK AO2
SLP161 T02390228 403000222





000
SAUS44 KSHV 010456
MTRBKB
METAR KBKB 010454Z AUTO 00000KT 7SM CLR 24/22 A2998 RMK AO2 SLP178
T02390222





000
SAUS44 KSHV 010357
MTRAQV
METAR KAQV 010356Z AUTO VRB03KT 10SM FEW038 24/23 A2999 RMK AO2
SLP153 T02390228 $





000
SAUS44 KSHV 010356
MTRBKB
METAR KBKB 010354Z AUTO 00000KT 7SM FEW021 FEW029 24/23 A2999 RMK
AO2 SLP180 T02440228





000
SAUS44 KSHV 010356
MTRPOE
METAR KPOE 010355Z AUTO 14004KT 10SM FEW038 24/23 A3001 RMK AO2
SLP162 T02390228





000
SAUS44 KSHV 010258
MTRAQV
METAR KAQV 010256Z AUTO 00000KT 6SM BR CLR 23/23 A3000 RMK AO2
SLP154 T02330228 55000 $





000
SAUS44 KSHV 010256
MTRPOE
METAR KPOE 010255Z AUTO 13003KT 10SM CLR 24/23 A3001 RMK AO2 SLP163
T02390233 53003





000
SAUS44 KSHV 010255
MTRBKB
METAR KBKB 010254Z AUTO 00000KT 10SM FEW035 FEW045 24/23 A2999 RMK
AO2 SLP181 T02440228 53003





000
SAUS44 KSHV 010159
MTRAQV
METAR KAQV 010156Z AUTO 00000KT 10SM CLR 24/23 A2999 RMK AO2 SLP153
T02390228 $





000
SAUS44 KSHV 010156
MTRPOE
METAR KPOE 010155Z AUTO 00000KT 10SM CLR 24/23 A3000 RMK AO2 SLP161
T02390233





000
SAUS44 KSHV 010155
MTRBKB
METAR KBKB 010154Z AUTO 00000KT 8SM CLR 25/23 A2998 RMK AO2 SLP178
T02500233





000
SAUS44 KSHV 010155
MTRBKB
METAR KBKB 010154Z AUTO 00000KT 8SM CLR 25/23 A2998 RMK AO2 SLP178
T02500233





000
SAUS44 KSHV 010057
MTRAQV
METAR KAQV 010056Z AUTO 00000KT 10SM CLR 24/23 A2998 RMK AO2 SLP151
T02440233 $





000
SAUS44 KSHV 010056
MTRPOE
METAR KPOE 010055Z AUTO 00000KT 10SM CLR 24/24 A3000 RMK AO2 SLP159
T02440239





000
SAUS44 KSHV 010055
MTRBKB
METAR KBKB 010054Z AUTO 00000KT 9SM FEW011 25/23 A2998 RMK AO2
SLP176 T02500233





000
SAUS44 KSHV 010032
MTRBKB
SPECI KBKB 010031Z AUTO 00000KT 7SM FEW001 SCT034 25/23 A2998 RMK
AO2 T02500233





000
SAUS44 KSHV 312358
MTRAQV
METAR KAQV 312356Z AUTO 00000KT 10SM CLR 25/24 A3000 RMK AO2 SLP155
6//// T02500239 10300 20233 55003 $





000
SAUS44 KSHV 312356
MTRBKB
METAR KBKB 312354Z AUTO 00000KT 10SM FEW095 25/23 A2998 RMK AO2
RAB07E33 TSB00E34 SLP178 P0020 60020 T02500228 10317 20244 55000





000
SAUS44 KSHV 312356
MTRPOE
METAR KPOE 312355Z AUTO 00000KT 10SM FEW046 SCT110 25/24 A3000 RMK
AO2 TSB03E23RAE52 SLP161 P0010 60010 T02500239 10300 20250 58002





000
SAUS44 KSHV 312341
MTRBKB
SPECI KBKB 312340Z AUTO 00000KT 10SM FEW027 SCT095 SCT120 25/23
A2999 RMK AO2 RAB07E33 TSB00E34 P0020 T02500233





000
SAUS44 KSHV 312330
MTRPOE
SPECI KPOE 312329Z AUTO 23003KT 10SM SCT038 SCT050 BKN070 25/24
A3002 RMK AO2 TSB03E23RAE27 P0010





000
SAUS44 KSHV 312329
MTRBKB
SPECI KBKB 312328Z AUTO 00000KT 3SM -TSRA BR SCT027 BKN039 OVC120
24/23 A3000 RMK AO2 RAB07 TSB00 P0020 T02440228





000
SAUS44 KSHV 312313
MTRBKB
SPECI KBKB 312311Z AUTO VRB04KT 1 3/4SM TSRA FEW022 SCT027 BKN038
26/22 A2999 RMK AO2 RAB07 TSB00 P0009 T02610222





000
SAUS44 KSHV 312310
MTRPOE
SPECI KPOE 312309Z AUTO VRB05KT 6SM +TSRA BR FEW030 BKN044 OVC065
25/23 A3001 RMK AO2 TSB03 P0006





000
SAUS44 KSHV 312257
MTRAQV
METAR KAQV 312256Z AUTO 00000KT 10SM CLR 24/23 A2999 RMK AO2 RAE02
SLP152 P0000 T02440233 $





000
SAUS44 KSHV 312256
MTRBKB
METAR KBKB 312254Z AUTO 00000KT 10SM TS FEW041 29/22 A2998 RMK AO2
TSB09E24B52 SLP177 T02890217





000
SAUS44 KSHV 312256
MTRPOE
METAR KPOE 312255Z AUTO 15005G14KT 10SM -RA FEW035 SCT044 BKN060
26/22 A3001 RMK AO2 RAB55 SLP161 P0000 T02610217





000
SAUS44 KSHV 312231
MTRBKB
SPECI KBKB 312230Z AUTO VRB03KT 10SM FEW041 31/24 A2998 RMK AO2
TSB09E24 T03060244





000
SAUS44 KSHV 312216
MTRBKB
SPECI KBKB 312215Z AUTO 00000KT 10SM TS CLR 31/24 A2998 RMK AO2
TSB09 T03060244





000
SAUS44 KSHV 312157
MTRAQV
METAR KAQV 312156Z AUTO 05005KT 5SM -RA BR SCT035 SCT050 BKN070
23/22 A3001 RMK AO2 RAB25 SLP159 P0010 T02330222 $





000
SAUS44 KSHV 312156
MTRPOE
METAR KPOE 312155Z AUTO 31007KT 10SM SCT035 BKN047 26/22 A3002 RMK
AO2 SLP166 T02560217





000
SAUS44 KSHV 312156
MTRAQV
SPECI KAQV 312154Z AUTO 05006KT 3SM -RA BR SCT035 BKN070 OVC110
23/22 A3001 RMK AO2 RAB25 P0010 $





000
SAUS44 KSHV 312156
MTRBKB
METAR KBKB 312154Z AUTO VRB03KT 10SM CLR 31/24 A2999 RMK AO2 SLP179
T03060239





000
SAUS44 KSHV 312145
MTRAQV
SPECI KAQV 312144Z AUTO VRB03KT 1 3/4SM -RA BR FEW029 BKN035 OVC090
23/22 A3003 RMK AO2 RAB25 P0010 T02330222 $





000
SAUS44 KSHV 312139
MTRAQV
SPECI KAQV 312138Z AUTO 20004KT 4SM -RA BR SCT032 BKN047 OVC100
23/22 A3003 RMK AO2 RAB25 P0009 T02330222 $





000
SAUS44 KSHV 312128
MTRAQV
SPECI KAQV 312127Z AUTO VRB05KT 1 1/2SM +RA SCT028 BKN037 BKN045
24/21 A3002 RMK AO2 RAB25 P0007 T02440211 $





000
SAUS44 KSHV 312058
MTRAQV
METAR KAQV 312056Z AUTO 00000KT 10SM FEW080 27/25 A3001 RMK AO2
SLP157 6//// T02720250 58012 $





000
SAUS44 KSHV 312056
MTRPOE
METAR KPOE 312055Z AUTO 18004KT 10SM SCT039 29/24 A3001 RMK AO2
TSB30E49 SLP163 60000 T02890244 58009





000
SAUS44 KSHV 312056
MTRBKB
METAR KBKB 312054Z AUTO 00000KT 10SM CLR 31/24 A2998 RMK AO2 SLP178
T03110239 58011





000
SAUS44 KSHV 312037
MTRPOE
SPECI KPOE 312036Z AUTO 18007KT 10SM TS FEW100 29/24 A3002 RMK AO2
TSB30





000
SAUS44 KSHV 311958
MTRAQV
METAR KAQV 311956Z AUTO 00000KT 10SM SCT029 25/24 A3003 RMK AO2
RAE50 SLP165 T02500239 $





000
SAUS44 KSHV 311956
MTRPOE
METAR KPOE 311955Z AUTO 17006KT 10SM FEW033 29/23 A3003 RMK AO2
SLP168 T02940233





000
SAUS44 KSHV 311956 COR
MTRBKB
METAR KBKB 311954Z AUTO VRB03KT 10SM CLR 32/23 A3000 RMK AO2 SLP185
T03170233





000
SAUS44 KSHV 311947
MTRAQV
SPECI KAQV 311946Z AUTO 00000KT 5SM -RA BR SCT031 BKN045 BKN075
25/23 A3003 RMK AO2 T02500233 PNO $





000
SAUS44 KSHV 311938
MTRAQV
SPECI KAQV 311937Z AUTO VRB03KT 1 3/4SM RA BR SCT029 BKN065 OVC110
25/23 A3003 RMK AO2 T02500233 PNO $





000
SAUS44 KSHV 311858
MTRAQV
METAR KAQV 311856Z AUTO 20005KT 9SM -RA FEW021 SCT027 29/24 A3003
RMK AO2 RAB56 SLP164 T02940244 PNO $





000
SAUS44 KSHV 311856
MTRPOE
METAR KPOE 311855Z AUTO 18010KT 10SM FEW026 SCT033 SCT042 30/24
A3004 RMK AO2 RAB01E11 SLP171 P0000 T03000239





000
SAUS44 KSHV 311856
MTRBKB
METAR KBKB 311854Z AUTO 00000KT 10SM FEW032 31/24 A3001 RMK AO2
SLP188 T03110239





000
SAUS44 KSHV 311835
MTRAQV
SPECI KAQV 311833Z AUTO 21004KT 10SM FEW016 FEW026 29/25 A3004 RMK
AO2 T02940250 PNO $





000
SAUS44 KSHV 311818
MTRBKB
SPECI KBKB 311816Z AUTO 16004KT 10SM SCT022 32/23 A3002 RMK AO2
T03170233





000
SAUS44 KSHV 311810
MTRAQV
SPECI KAQV 311809Z AUTO 19004KT 10SM BKN018 BKN025 29/25 A3004 RMK
AO2 T02890250 PNO $





000
SAUS44 KSHV 311809
MTRPOE
SPECI KPOE 311808Z AUTO 19004KT 10SM -RA FEW022 BKN041 OVC065 29/24
A3004 RMK AO2 RAB01 P0000





000
SAUS44 KSHV 311758
MTRAQV
METAR KAQV 311756Z AUTO 00000KT 10SM SCT017 29/25 A3004 RMK AO2
SLP170 6//// T02890250 10294 20239 56003 PNO $





000
SAUS44 KSHV 311757
MTRPOE
METAR KPOE 311755Z AUTO 19005KT 10SM BKN022 BKN039 BKN065 29/24
A3004 RMK AO2 SLP172 T02890244 10294 20233 58007





000
SAUS44 KSHV 311755
MTRBKB
METAR KBKB 311754Z AUTO 13004KT 10SM BKN022 BKN034 31/24 A3002 RMK
AO2 SLP190 T03060244 10317 20244 56008





000
SAUS44 KSHV 311754
MTRBKB
SPECI KBKB 311752Z AUTO VRB03KT 10SM BKN022 31/24 A3002 RMK AO2





000
SAUS44 KSHV 311729
MTRPOE
SPECI KPOE 311728Z AUTO 15004KT 10SM SCT016 SCT023 29/25 A3005 RMK
AO2





000
SAUS44 KSHV 311719
MTRAQV
SPECI KAQV 311718Z AUTO 16005KT 10SM FEW021 SCT026 BKN060 29/24
A3004 RMK AO2 T02890244 PNO $





000
SAUS44 KSHV 311719
MTRPOE
SPECI KPOE 311718Z AUTO 18006KT 10SM SCT014 BKN021 28/24 A3005 RMK
AO2





000
SAUS44 KSHV 311706
MTRAQV
SPECI KAQV 311705Z AUTO VRB05KT 10SM FEW021 BKN027 BKN060 29/24
A3004 RMK AO2 T02890244 PNO $





000
SAUS44 KSHV 311704
MTRBKB
SPECI KBKB 311703Z AUTO VRB04KT 10SM SCT019 29/24 A3003 RMK AO2
T02940244





000
SAUS44 KSHV 311658
MTRAQV
METAR KAQV 311656Z AUTO 17006KT 10SM SCT022 BKN060 BKN090 29/24
A3004 RMK AO2 SLP170 T02890244 PNO $





000
SAUS44 KSHV 311657
MTRPOE
METAR KPOE 311655Z AUTO 15007KT 10SM SCT014 28/25 A3005 RMK AO2
SLP177 T02830250





000
SAUS44 KSHV 311655
MTRBKB
METAR KBKB 311654Z AUTO VRB03KT 10SM BKN016 BKN022 29/24 A3004 RMK
AO2 SLP196 T02940244





000
SAUS44 KSHV 311624
MTRBKB
SPECI KBKB 311623Z AUTO VRB03KT 10SM BKN015 29/24 A3004 RMK AO2
T02890244





000
SAUS44 KSHV 311620
MTRPOE
SPECI KPOE 311618Z AUTO 16007KT 10SM SCT014 SCT020 27/24 A3006 RMK
AO2





000
SAUS44 KSHV 311619
MTRAQV
SPECI KAQV 311617Z AUTO VRB06KT 10SM SCT013 BKN020 29/25 A3005 RMK
AO2 T02940250 PNO $





000
SAUS44 KSHV 311557
MTRAQV
METAR KAQV 311556Z AUTO VRB06KT 10SM BKN011 BKN110 28/24 A3005 RMK
AO2 SLP172 T02830244 PNO $





000
SAUS44 KSHV 311556
MTRPOE
METAR KPOE 311555Z AUTO 14009KT 10SM BKN016 28/24 A3006 RMK AO2
SLP180 T02830244





000
SAUS44 KSHV 311555
MTRBKB
METAR KBKB 311554Z AUTO 00000KT 10SM OVC013 28/24 A3004 RMK AO2
SLP198 T02830244





000
SAUS44 KSHV 311543
MTRPOE
SPECI KPOE 311542Z AUTO 14010KT 10SM BKN016 BKN100 28/24 A3006 RMK
AO2





000
SAUS44 KSHV 311518
MTRBKB
SPECI KBKB 311517Z AUTO 00000KT 10SM BKN010 BKN095 OVC110 28/24
A3004 RMK AO2 T02830239





000
SAUS44 KSHV 311506
MTRPOE
SPECI KPOE 311505Z AUTO 14006KT 10SM FEW008 OVC100 28/24 A3006 RMK
AO2





000
SAUS44 KSHV 311458
MTRAQV
METAR KAQV 311456Z AUTO VRB03KT 10SM OVC005 26/24 A3005 RMK AO2
SLP173 6//// T02610239 53006 PNO $





000
SAUS44 KSHV 311456
MTRPOE
METAR KPOE 311455Z AUTO 13005KT 10SM BKN008 OVC100 27/24 A3006 RMK
AO2 CIG 006V011 SLP180 T02670239 52003





000
SAUS44 KSHV 311455
MTRBKB
METAR KBKB 311454Z AUTO 14005KT 10SM SCT009 BKN090 BKN110 27/24
A3004 RMK AO2 SLP198 T02720239 51005





000
SAUS44 KSHV 311432
MTRAQV
SPECI KAQV 311431Z AUTO 12003KT 10SM OVC005 25/24 A3005 RMK AO2
T02500239 PNO $





000
SAUS44 KSHV 311408
MTRPOE
SPECI KPOE 311407Z AUTO 13006KT 10SM OVC006 24/23 A3005 RMK AO2





000
SAUS44 KSHV 311358
MTRPOE
METAR KPOE 311355Z AUTO 13006KT 10SM OVC004 24/23 A3005 RMK AO2
SLP177 T02440233





000
SAUS44 KSHV 311357
MTRAQV
METAR KAQV 311356Z AUTO VRB03KT 10SM OVC003 24/23 A3004 RMK AO2
SLP171 T02440233 PNO $





000
SAUS44 KSHV 311355
MTRBKB
METAR KBKB 311354Z AUTO 00000KT 10SM BKN005 26/23 A3003 RMK AO2
SLP196 T02560233





000
SAUS44 KSHV 311344
MTRBKB
SPECI KBKB 311342Z AUTO VRB03KT 10SM BKN005 BKN010 25/23 A3004 RMK
AO2 T02500228





000
SAUS44 KSHV 311258
MTRAQV
METAR KAQV 311256Z AUTO 16004KT 8SM OVC002 24/23 A3004 RMK AO2
SLP170 T02390233 PNO $





000
SAUS44 KSHV 311256
MTRPOE
METAR KPOE 311255Z AUTO 13005KT 10SM OVC004 23/23 A3005 RMK AO2
SLP177 T02330233





000
SAUS44 KSHV 311255
MTRBKB
METAR KBKB 311254Z AUTO 00000KT 10SM OVC004 24/23 A3003 RMK AO2
SLP195 T02440228





000
SAUS44 KSHV 311158
MTRAQV
METAR KAQV 311156Z AUTO 00000KT 3SM BR OVC002 23/23 A3003 RMK AO2
SLP168 6//// 7//// T02330228 10239 20233 51017 PNO $





000
SAUS44 KSHV 311156
MTRPOE
METAR KPOE 311155Z AUTO 13004KT 10SM OVC004 23/23 A3004 RMK AO2
RAB1059E09 SLP174 P0001 60001 70104 T02330228 10233 20222 51018





000
SAUS44 KSHV 311155
MTRBKB
METAR KBKB 311154Z AUTO 00000KT 10SM OVC004 24/23 A3003 RMK AO2
RAB11E28 SLP192 P0000 60000 70057 T02440228 10244 20239 51018





000
SAUS44 KSHV 311140
MTRAQV
SPECI KAQV 311139Z AUTO 00000KT 2SM BR OVC002 23/23 A3003 RMK AO2
T02330228 PNO $





000
SAUS44 KSHV 311105
MTRAQV
SPECI KAQV 311104Z AUTO 00000KT 1 1/2SM BR OVC002 23/23 A3002 RMK
AO2 T02330228 PNO $





000
SAUS44 KSHV 311058
MTRAQV
METAR KAQV 311056Z AUTO 00000KT 2SM BR OVC002 23/23 A3002 RMK AO2
SLP163 T02330228 PNO $





000
SAUS44 KSHV 311056
MTRBKB
METAR KBKB 311054Z AUTO 00000KT 10SM OVC004 24/23 A3002 RMK AO2
SLP189 T02440228





000
SAUS44 KSHV 311056
MTRPOE
METAR KPOE 311055Z AUTO 13005KT 10SM OVC004 23/23 A3003 RMK AO2
SLP169 T02330228





000
SAUS44 KSHV 311040
MTRPOE
SPECI KPOE 311039Z AUTO 12004KT 10SM OVC004 23/23 A3003 RMK AO2





000
SAUS44 KSHV 311038
MTRAQV
SPECI KAQV 311037Z AUTO 00000KT 2SM BR OVC003 23/23 A3001 RMK AO2
T02330228 PNO $





000
SAUS44 KSHV 311019
MTRBKB
SPECI KBKB 311018Z AUTO 00000KT 10SM OVC004 24/23 A3000 RMK AO2
T02440228





000
SAUS44 KSHV 310957
MTRAQV
METAR KAQV 310956Z AUTO 00000KT 6SM BR OVC003 24/23 A3000 RMK AO2
SLP156 T02390228 PNO $





000
SAUS44 KSHV 310956
MTRPOE
METAR KPOE 310955Z AUTO 00000KT 10SM OVC006 23/23 A3001 RMK AO2
SLP163 T02330228





000
SAUS44 KSHV 310955
MTRBKB
METAR KBKB 310954Z AUTO 00000KT 10SM OVC008 24/23 A2999 RMK AO2
RAE01 CIG 004V011 SLP181 P0000 T02440228





000
SAUS44 KSHV 310910
MTRAQV
SPECI KAQV 310909Z AUTO 00000KT 10SM OVC004 24/23 A2999 RMK AO2
T02390228 PNO $





000
SAUS44 KSHV 310909
MTRPOE
SPECI KPOE 310908Z AUTO 13004KT 10SM OVC006 23/23 A2999 RMK AO2 CIG
004V009





000
SAUS44 KSHV 310858
MTRAQV
METAR KAQV 310856Z AUTO 00000KT 10SM OVC005 23/23 A2998 RMK AO2
SLP150 6//// T02330228 53001 PNO $





000
SAUS44 KSHV 310856
MTRBKB
METAR KBKB 310854Z AUTO 00000KT 10SM -RA OVC009 24/22 A2997 RMK AO2
RAB38 CIG 005V011 SLP174 P0000 60000 T02390222 53002





000
SAUS44 KSHV 310856
MTRPOE
METAR KPOE 310855Z AUTO 13003KT 10SM OVC008 23/23 A2999 RMK AO2 CIG
004V010 SLP156 T02330228 53001





000
SAUS44 KSHV 310848
MTRBKB
SPECI KBKB 310847Z AUTO 00000KT 10SM -RA OVC009 24/22 A2997 RMK AO2
RAB38 P0000 T02390222





000
SAUS44 KSHV 310843
MTRAQV
SPECI KAQV 310842Z AUTO 00000KT 10SM OVC005 23/23 A2998 RMK AO2
T02330228 PNO $





000
SAUS44 KSHV 310834
MTRBKB
SPECI KBKB 310833Z AUTO 00000KT 10SM BKN011 24/22 A2997 RMK AO2
T02390222





000
SAUS44 KSHV 310833
MTRPOE
SPECI KPOE 310832Z AUTO 15004KT 10SM BKN008 23/23 A2999 RMK AO2 CIG
005V010





000
SAUS44 KSHV 310807
MTRAQV
SPECI KAQV 310806Z AUTO 00000KT 10SM BKN004 OVC018 23/23 A2997 RMK
AO2 T02330228 PNO $





000
SAUS44 KSHV 310803
MTRPOE
SPECI KPOE 310802Z AUTO 16003KT 10SM FEW005 23/23 A2998 RMK AO2





000
SAUS44 KSHV 310757
MTRPOE
METAR KPOE 310755Z AUTO 18003KT 10SM FEW007 23/23 A2999 RMK AO2
SLP154 T02330228





000
SAUS44 KSHV 310757
MTRAQV
METAR KAQV 310756Z AUTO 15003KT 10SM SCT006 OVC016 23/23 A2997 RMK
AO2 SLP147 T02330228 PNO $





000
SAUS44 KSHV 310755
MTRBKB
METAR KBKB 310754Z AUTO 00000KT 10SM CLR 24/22 A2997 RMK AO2 SLP175
T02390222





000
SAUS44 KSHV 310726
MTRAQV
SPECI KAQV 310724Z AUTO 00000KT 10SM SCT006 BKN017 23/23 A2998 RMK
AO2 T02330228 PNO $





000
SAUS44 KSHV 310721
MTRBKB
SPECI KBKB 310720Z AUTO 00000KT 10SM SCT016 24/22 A2997 RMK AO2
T02390222





000
SAUS44 KSHV 310718
MTRPOE
SPECI KPOE 310717Z AUTO 18005KT 10SM FEW007 SCT014 23/23 A2999 RMK
AO2





000
SAUS44 KSHV 310705
MTRBKB
SPECI KBKB 310704Z AUTO 00000KT 10SM BKN016 BKN095 24/22 A2997 RMK
AO2 T02390222





000
SAUS44 KSHV 310658
MTRAQV
METAR KAQV 310656Z AUTO 00000KT 10SM BKN006 23/23 A2997 RMK AO2
SLP147 T02330228 PNO $





000
SAUS44 KSHV 310656
MTRPOE
METAR KPOE 310655Z AUTO 17003KT 10SM BKN014 23/23 A2999 RMK AO2
SLP157 T02330228





000
SAUS44 KSHV 310655
MTRBKB
METAR KBKB 310654Z AUTO 00000KT 10SM SCT018 SCT095 24/22 A2997 RMK
AO2 SLP173 T02390222





000
SAUS44 KSHV 310557
MTRAQV
METAR KAQV 310556Z AUTO 00000KT 10SM OVC008 23/23 A2998 RMK AO2
SLP149 6//// T02330228 10256 20233 402610228 50000 PNO $





000
SAUS44 KSHV 310556
MTRPOE
METAR KPOE 310555Z AUTO 17003KT 10SM CLR 23/23 A2999 RMK AO2 SLP156
T02330228 10244 20228 57003





000
SAUS44 KSHV 310555
MTRBKB
METAR KBKB 310554Z AUTO 00000KT 10SM FEW005 24/22 A2997 RMK AO2
SLP173 T02390222 10256 20239 402610239 58005





000
SAUS44 KSHV 310538
MTRAQV
SPECI KAQV 310537Z AUTO 00000KT 10SM OVC009 23/23 A2998 RMK AO2 CIG
007V011 T02330228 PNO $





000
SAUS44 KSHV 310527
MTRBKB
SPECI KBKB 310526Z AUTO 00000KT 10SM SCT007 24/22 A2997 RMK AO2
T02390222





000
SAUS44 KSHV 310521
MTRPOE
SPECI KPOE 310519Z AUTO 15004KT 10SM SCT007 23/23 A2999 RMK AO2





000
SAUS44 KSHV 310458
MTRAQV
METAR KAQV 310456Z AUTO 00000KT 10SM BKN010 24/23 A2998 RMK AO2 CIG
006V012 SLP150 T02390228 PNO $





000
SAUS44 KSHV 310457
MTRPOE
METAR KPOE 310455Z AUTO 16004KT 10SM OVC007 23/23 A2999 RMK AO2
SLP157 T02330228 402500222





000
SAUS44 KSHV 310456
MTRBKB
METAR KBKB 310454Z AUTO VRB03KT 10SM BKN007 24/22 A2997 RMK AO2
SLP175 T02440222





000
SAUS44 KSHV 310452
MTRPOE
SPECI KPOE 310450Z AUTO 17003KT 10SM OVC007 23/23 A2999 RMK AO2
402500222





000
SAUS44 KSHV 310358
MTRAQV
METAR KAQV 310356Z AUTO 18006KT 10SM OVC010 24/23 A3000 RMK AO2
SLP156 T02440228 PNO $





000
SAUS44 KSHV 310357
MTRPOE
METAR KPOE 310355Z AUTO 16008KT 10SM BKN009 23/23 A3000 RMK AO2
SLP159 T02330228





000
SAUS44 KSHV 310355
MTRBKB
METAR KBKB 310354Z AUTO VRB05KT 10SM OVC008 24/22 A2998 RMK AO2 CIG
007V012 SLP180 T02440222





000
SAUS44 KSHV 310344
MTRAQV
SPECI KAQV 310343Z AUTO 18006KT 10SM OVC010 24/23 A2999 RMK AO2 CIG
007V013 T02440228 PNO $





000
SAUS44 KSHV 310322
MTRPOE
SPECI KPOE 310321Z AUTO 16005KT 10SM BKN009 23/23 A3001 RMK AO2 CIG
008V012





000
SAUS44 KSHV 310257
MTRAQV
METAR KAQV 310256Z AUTO 17005KT 10SM BKN008 OVC110 24/23 A2998 RMK
AO2 CIG 006V012 SLP149 6//// T02440233 53010 PNO $





000
SAUS44 KSHV 310257
MTRPOE
METAR KPOE 310255Z AUTO 16008KT 10SM SCT009 24/23 A3000 RMK AO2
SLP161 T02390228 53013





000
SAUS44 KSHV 310256
MTRBKB
METAR KBKB 310254Z AUTO VRB04KT 10SM OVC008 25/23 A2998 RMK AO2 CIG
006V011 SLP177 T02500228 53012





000
SAUS44 KSHV 310249
MTRPOE
SPECI KPOE 310248Z AUTO 16008KT 10SM BKN009 24/23 A3000 RMK AO2 CIG
006V011





000
SAUS44 KSHV 310219
MTRPOE
SPECI KPOE 310218Z AUTO 16006KT 10SM BKN007 24/23 A2999 RMK AO2





000
SAUS44 KSHV 310158
MTRAQV
METAR KAQV 310156Z AUTO VRB04KT 10SM BKN009 OVC012 24/23 A2996 RMK
AO2 CIG 006V010 SLP144 T02440233 PNO $





000
SAUS44 KSHV 310156
MTRPOE
METAR KPOE 310155Z AUTO 15006KT 10SM SCT009 BKN013 24/23 A2998 RMK
AO2 SLP154 T02390233





000
SAUS44 KSHV 310155
MTRBKB
METAR KBKB 310154Z AUTO 00000KT 10SM BKN008 OVC014 26/23 A2996 RMK
AO2 CIG 005V012 SLP172 T02560233





000
SAUS44 KSHV 310154
MTRPOE
SPECI KPOE 310153Z AUTO 15007KT 10SM SCT009 BKN013 24/23 A2998 RMK
AO2





000
SAUS44 KSHV 310150
MTRAQV
SPECI KAQV 310149Z AUTO VRB04KT 10SM OVC009 24/23 A2996 RMK AO2 CIG
006V013 T02440233 PNO $





000
SAUS44 KSHV 310143
MTRPOE
SPECI KPOE 310142Z AUTO 15009KT 10SM BKN009 24/23 A2998 RMK AO2 CIG
005V011





000
SAUS44 KSHV 310130
MTRAQV
SPECI KAQV 310129Z AUTO 16005KT 8SM BKN010 24/23 A2995 RMK AO2 CIG
007V013 T02440233 PNO $





000
SAUS44 KSHV 310127
MTRPOE
SPECI KPOE 310125Z AUTO 15008KT 10SM SCT009 BKN014 24/23 A2997 RMK
AO2





000
SAUS44 KSHV 310058
MTRAQV
METAR KAQV 310056Z AUTO VRB03KT 7SM FEW009 SCT017 SCT110 25/23 A2995
RMK AO2 SLP137 T02500233 PNO $





000
SAUS44 KSHV 310056
MTRBKB
METAR KBKB 310054Z AUTO 00000KT 10SM BKN008 OVC014 26/23 A2995 RMK
AO2 SLP166 T02560233





000
SAUS44 KSHV 310056
MTRPOE
METAR KPOE 310055Z AUTO 14007KT 10SM BKN009 24/23 A2996 RMK AO2 CIG
006V014 SLP147 T02440233





000
SAUS44 KSHV 310052
MTRAQV
SPECI KAQV 310051Z AUTO 17004KT 7SM SCT009 BKN017 BKN110 25/23 A2995
RMK AO2 PNO $





000
SAUS44 KSHV 310029
MTRAQV
SPECI KAQV 310028Z AUTO VRB04KT 8SM BKN009 OVC015 25/23 A2995 RMK
AO2 T02500233 PNO $





000
SAUS44 KSHV 310023
MTRBKB
SPECI KBKB 310022Z AUTO 00000KT 10SM BKN012 OVC024 26/23 A2995 RMK
AO2 T02560233





000
SAUS44 KSHV 310002
MTRBKB
SPECI KBKB 310001Z AUTO 00000KT 10SM BKN009 BKN021 26/23 A2995 RMK
AO2 CIG 008V014 T02560233





000
SAUS44 KSHV 302358
MTRAQV
METAR KAQV 302356Z AUTO 18004KT 10SM BKN013 OVC020 26/23 A2995 RMK
AO2 SLP139 6//// T02560233 10261 20244 51003 PNO $





000
SAUS44 KSHV 302356
MTRPOE
METAR KPOE 302355Z AUTO 16005KT 10SM OVC009 24/23 A2996 RMK AO2 CIG
007V012 SLP147 60001 T02440233 10250 20233 51001





000
SAUS44 KSHV 302355
MTRBKB
METAR KBKB 302354Z AUTO VRB03KT 10SM OVC010 26/23 A2994 RMK AO2 CIG
008V013 SLP164 60001 T02560233 10261 20244 56002





000
SAUS44 KSHV 302350
MTRAQV
SPECI KAQV 302349Z AUTO 16004KT 10SM BKN013 OVC018 26/23 A2995 RMK
AO2 T02560233 PNO $





000
SAUS44 KSHV 302327
MTRAQV
SPECI KAQV 302325Z AUTO 18005KT 10SM FEW012 OVC016 26/23 A2995 RMK
AO2 T02560233 PNO $





000
SAUS44 KSHV 302317
MTRPOE
SPECI KPOE 302316Z AUTO 17006KT 10SM OVC009 24/23 A2996 RMK AO2





000
SAUS44 KSHV 302303
MTRBKB
SPECI KBKB 302301Z AUTO VRB05KT 10SM BKN011 BKN015 OVC021 26/23
A2994 RMK AO2 CIG 007V012 T02610233





000
SAUS44 KSHV 302258
MTRAQV
METAR KAQV 302256Z AUTO VRB03KT 10SM BKN012 OVC017 26/23 A2995 RMK
AO2 SLP138 T02560233 PNO $





000
SAUS44 KSHV 302256
MTRBKB
METAR KBKB 302254Z AUTO 00000KT 10SM BKN009 BKN016 OVC020 26/23
A2994 RMK AO2 CIG 007V012 SLP165 T02610233





000
SAUS44 KSHV 302256
MTRPOE
METAR KPOE 302255Z AUTO 17008KT 10SM OVC011 25/23 A2996 RMK AO2
SLP147 T02500233





000
SAUS44 KSHV 302252
MTRBKB
SPECI KBKB 302251Z AUTO VRB05KT 10SM BKN009 OVC017 26/23 A2994 RMK
AO2 CIG 007V013





000
SAUS44 KSHV 302240
MTRBKB
SPECI KBKB 302239Z AUTO VRB04KT 10SM BKN011 OVC016 26/23 A2994 RMK
AO2 T02610233





000
SAUS44 KSHV 302235
MTRPOE
SPECI KPOE 302234Z AUTO 19004KT 10SM BKN011 OVC016 25/23 A2996 RMK
AO2 CIG 007V013





000
SAUS44 KSHV 302219
MTRBKB
SPECI KBKB 302218Z AUTO VRB04KT 10SM SCT009 OVC016 26/23 A2995 RMK
AO2 T02610233





000
SAUS44 KSHV 302159
MTRAQV
METAR KAQV 302156Z AUTO VRB06KT 10SM BKN012 BKN017 OVC022 26/23
A2995 RMK AO2 SLP137 T02610233 PNO $





000
SAUS44 KSHV 302156
MTRPOE
METAR KPOE 302155Z AUTO 18006KT 10SM BKN009 OVC013 25/23 A2997 RMK
AO2 SLP148 T02500233





000
SAUS44 KSHV 302155
MTRBKB
METAR KBKB 302154Z AUTO VRB04KT 10SM OVC009 26/23 A2995 RMK AO2 CIG
007V013 SLP166 T02610233





000
SAUS44 KSHV 302150
MTRAQV
SPECI KAQV 302149Z AUTO 00000KT 10SM BKN012 BKN016 OVC020 26/23
A2995 RMK AO2 T02610233 PNO $





000
SAUS44 KSHV 302146
MTRBKB
SPECI KBKB 302145Z AUTO VRB03KT 10SM BKN010 OVC013 26/23 A2995 RMK
AO2 CIG 007V011 T02560233





000
SAUS44 KSHV 302133
MTRBKB
SPECI KBKB 302132Z AUTO VRB03KT 10SM OVC009 26/23 A2995 RMK AO2 CIG
007V013 T02560228





000
SAUS44 KSHV 302128
MTRAQV
SPECI KAQV 302127Z AUTO VRB05KT 10SM OVC018 26/23 A2995 RMK AO2 CIG
011V023 T02560233 PNO $





000
SAUS44 KSHV 302124
MTRBKB
SPECI KBKB 302122Z AUTO VRB03KT 10SM SCT007 OVC013 26/23 A2995 RMK
AO2 T02560228





000
SAUS44 KSHV 302105
MTRAQV
SPECI KAQV 302103Z AUTO 20007KT 10SM BKN013 OVC020 26/23 A2994 RMK
AO2 T02560233 PNO $





000
SAUS44 KSHV 302058
MTRAQV
METAR KAQV 302056Z AUTO VRB06KT 10SM SCT011 OVC015 26/23 A2994 RMK
AO2 SLP135 6//// T02560233 58004 PNO $





000
SAUS44 KSHV 302056
MTRPOE
METAR KPOE 302055Z AUTO 19009KT 10SM OVC009 24/23 A2996 RMK AO2 CIG
007V012 SLP146 60001 T02440228 58002





000
SAUS44 KSHV 302055
MTRBKB
METAR KBKB 302054Z AUTO VRB04KT 10SM BKN008 OVC090 26/23 A2994 RMK
AO2 CIG 006V011 SLP164 60001 T02560233 56005





000
SAUS44 KSHV 302044
MTRPOE
SPECI KPOE 302043Z AUTO 18007KT 10SM BKN009 OVC013 24/23 A2996 RMK
AO2 CIG 007V011





000
SAUS44 KSHV 302039
MTRAQV
SPECI KAQV 302038Z AUTO VRB05KT 10SM BKN011 OVC018 26/23 A2994 RMK
AO2 T02560233 PNO $





000
SAUS44 KSHV 302032
MTRPOE
SPECI KPOE 302031Z AUTO 18005G14KT 10SM OVC011 25/23 A2996 RMK AO2





000
SAUS44 KSHV 301957
MTRAQV
METAR KAQV 301956Z AUTO 19005KT 10SM BKN009 OVC013 25/23 A2995 RMK
AO2 CIG 007V012 SLP139 T02500233 PNO $





000
SAUS44 KSHV 301956
MTRBKB
METAR KBKB 301954Z AUTO VRB04KT 10SM BKN007 OVC011 25/23 A2995 RMK
AO2 RAE05 CIG 006V009 SLP166 P0000 T02500228





000
SAUS44 KSHV 301956
MTRPOE
METAR KPOE 301955Z AUTO 19009KT 10SM BKN009 OVC012 24/23 A2997 RMK
AO2 RAB04E13 CIG 006V010 SLP148 P0000 T02440233





000
SAUS44 KSHV 301951
MTRPOE
SPECI KPOE 301950Z AUTO 18006KT 10SM OVC009 24/23 A2996 RMK AO2
RAB04E13 CIG 006V013 P0000





000
SAUS44 KSHV 301948
MTRAQV
SPECI KAQV 301947Z AUTO VRB04KT 10SM BKN009 OVC013 25/23 A2995 RMK
AO2 CIG 007V012 T02500233 PNO $





000
SAUS44 KSHV 301927
MTRPOE
SPECI KPOE 301926Z AUTO 19009KT 10SM BKN007 OVC011 24/23 A2996 RMK
AO2 RAB04E13 CIG 005V009 P0000





000
SAUS44 KSHV 301926
MTRAQV
SPECI KAQV 301925Z AUTO VRB04KT 10SM OVC011 25/23 A2995 RMK AO2 CIG
008V013 T02500228 PNO $





000
SAUS44 KSHV 301913
MTRPOE
SPECI KPOE 301912Z AUTO 18008KT 10SM -RA OVC009 24/23 A2996 RMK AO2
RAB04 CIG 005V012 P0000





000
SAUS44 KSHV 301913
MTRAQV
SPECI KAQV 301912Z AUTO 22004KT 10SM OVC009 25/23 A2995 RMK AO2 CIG
008V013 T02500233 PNO $





000
SAUS44 KSHV 301857
MTRAQV
METAR KAQV 301856Z AUTO VRB06KT 10SM OVC011 25/23 A2995 RMK AO2
RAE01 SLP138 T02500233 PNO $





000
SAUS44 KSHV 301856
MTRPOE
METAR KPOE 301855Z AUTO 18009KT 10SM OVC007 24/23 A2997 RMK AO2
RAE37 CIG 005V009 SLP148 P0001 T02390233





000
SAUS44 KSHV 301856
MTRBKB
METAR KBKB 301854Z AUTO VRB04KT 10SM -RA OVC005 25/23 A2995 RMK AO2
CIG 004V008 SLP165 P0001 T02500233





000
SAUS44 KSHV 301811
MTRPOE
SPECI KPOE 301810Z AUTO 17008KT 10SM -RA BKN007 OVC012 24/23 A2997
RMK AO2 CIG 004V011 P0001





000
SAUS44 KSHV 301758
MTRAQV
METAR KAQV 301756Z AUTO VRB04KT 10SM -RA OVC009 24/23 A2995 RMK AO2
RAB1657E07B50 CIG 005V014 SLP140 6//// T02440233 10244 20228 58001
PNO $





000
SAUS44 KSHV 301756
MTRPOE
METAR KPOE 301755Z AUTO 17004KT 10SM -RA BKN008 OVC012 24/23 A2997
RMK AO2 CIG 005V011 SLP151 P0001 60102 T02390228 10239 20222 50002





000
SAUS44 KSHV 301745
MTRAQV
SPECI KAQV 301743Z AUTO 18003KT 10SM BKN008 OVC011 24/23 A2996 RMK
AO2 RAB1657E07 CIG 005V011 T02440233 PNO $





000
SAUS44 KSHV 301745
MTRPOE
SPECI KPOE 301744Z AUTO 16005KT 10SM -RA BKN008 OVC011 24/23 A2998
RMK AO2 CIG 005V009 P0000





    US Dept of Commerce
    National Oceanic and Atmospheric Administration
    National Weather Service
    1325 East West Highway
    Silver Spring, MD 20910
    Page Author: NWS Internet Services Team
Disclaimer
Information Quality
Credits
Glossary
Privacy Policy
Freedom of Information Act (FOIA)
About Us
Career Opportunities